Time;durP1;ratioP1;P1;durP2;ratioP2;P2;SDS_P1;SDS_P2;PMS_P1;PMS_P2;Temp;Humidity;BMP_temperature;BMP_pressure;BME280_temperature;BME280_humidity;BME280_pressure;Samples;Min_cycle;Max_cycle;Signal;HPM_P1;HPM_P2
2021/03/14 00:01:01;;;;;;;1.95;0.35;;;;;;;5.19;69.59;95087.78;5051803;28;20045;-67
2021/03/14 00:03:29;;;;;;;1.98;0.43;;;;;;;5.22;69.46;95076.38;5030445;28;20099;-67
2021/03/14 00:05:56;;;;;;;1.73;0.40;;;;;;;5.23;69.23;95080.66;5031483;28;20099;-68
2021/03/14 00:08:24;;;;;;;1.98;0.55;;;;;;;5.18;69.19;95092.38;5030454;28;20046;-67
2021/03/14 00:10:53;;;;;;;1.27;0.50;;;;;;;5.16;69.00;95088.41;5031167;28;20095;-68
2021/03/14 00:13:22;;;;;;;3.17;0.50;;;;;;;5.16;68.54;95099.19;5030700;28;20405;-68
2021/03/14 00:15:49;;;;;;;1.85;0.50;;;;;;;5.19;67.98;95101.28;5030418;28;20103;-67
2021/03/14 00:18:16;;;;;;;1.83;0.50;;;;;;;5.21;68.03;95109.84;5031012;28;20053;-68
2021/03/14 00:20:43;;;;;;;3.33;0.60;;;;;;;5.19;67.92;95110.16;5030217;28;20049;-67
2021/03/14 00:23:09;;;;;;;1.73;0.40;;;;;;;5.24;67.46;95114.63;5046937;28;20055;-68
2021/03/14 00:25:35;;;;;;;0.52;0.40;;;;;;;5.29;67.32;95125.28;5050024;28;20404;-68
2021/03/14 00:28:02;;;;;;;1.65;0.47;;;;;;;5.31;67.06;95133.84;5039483;28;20049;-71
2021/03/14 00:30:29;;;;;;;1.33;0.50;;;;;;;5.29;67.06;95130.66;5030476;28;20052;-67
2021/03/14 00:32:55;;;;;;;1.25;0.75;;;;;;;5.23;67.96;95126.53;5030940;28;20456;-68
2021/03/14 00:35:22;;;;;;;1.58;0.52;;;;;;;5.18;68.99;95123.97;5029933;28;20049;-68
2021/03/14 00:37:49;;;;;;;1.83;0.50;;;;;;;5.10;69.27;95116.63;5030919;28;20045;-68
2021/03/14 00:40:16;;;;;;;1.95;0.50;;;;;;;5.03;69.99;95113.63;5030762;28;20538;-67
2021/03/14 00:42:42;;;;;;;3.28;0.50;;;;;;;5.10;70.15;95119.34;5029794;28;20037;-68
2021/03/14 00:45:10;;;;;;;1.98;0.60;;;;;;;5.11;70.28;95118.22;5030673;28;20046;-68
2021/03/14 00:47:36;;;;;;;2.50;0.40;;;;;;;5.22;69.91;95120.34;5030027;28;20054;-67
2021/03/14 00:50:05;;;;;;;2.45;0.55;;;;;;;5.15;69.82;95117.28;5030775;28;20049;-68
2021/03/14 00:52:31;;;;;;;0.82;0.57;;;;;;;5.08;70.17;95121.56;5039730;28;20045;-68
2021/03/14 00:54:57;;;;;;;2.97;0.60;;;;;;;5.04;70.31;95128.69;5049152;28;20532;-68
2021/03/14 00:57:23;;;;;;;1.17;0.50;;;;;;;5.03;70.87;95127.09;5043566;28;20049;-67
2021/03/14 00:59:49;;;;;;;1.17;0.40;;;;;;;4.96;71.24;95128.34;5030193;28;20068;-68
2021/03/14 01:02:16;;;;;;;1.45;0.47;;;;;;;4.94;71.88;95125.16;5029899;28;20680;-68
2021/03/14 01:04:42;;;;;;;1.75;0.43;;;;;;;4.89;71.73;95117.19;5029847;28;20049;-68
2021/03/14 01:07:08;;;;;;;1.75;0.50;;;;;;;4.93;72.24;95126.28;5030207;28;20037;-68
2021/03/14 01:09:34;;;;;;;3.85;0.55;;;;;;;4.87;72.34;95130.22;5029691;28;20041;-68
2021/03/14 01:12:00;;;;;;;1.35;0.60;;;;;;;4.76;72.48;95133.50;5030689;28;20121;-68
2021/03/14 01:14:26;;;;;;;1.55;0.60;;;;;;;4.67;73.29;95136.16;5029212;28;20052;-67
2021/03/14 01:16:52;;;;;;;1.75;0.70;;;;;;;4.73;73.09;95134.91;5030666;28;20137;-67
2021/03/14 01:19:19;;;;;;;1.27;0.57;;;;;;;4.72;73.31;95133.31;5029509;28;20049;-67
2021/03/14 01:21:44;;;;;;;3.08;0.68;;;;;;;4.63;73.75;95137.88;5033567;28;20052;-68
2021/03/14 01:24:11;;;;;;;1.15;0.57;;;;;;;4.58;73.96;95140.69;5049611;28;20459;-68
2021/03/14 01:26:37;;;;;;;1.00;0.50;;;;;;;4.44;74.38;95155.06;5049755;28;20492;-68
2021/03/14 01:29:03;;;;;;;3.28;0.45;;;;;;;4.48;74.93;95138.25;5030117;28;20057;-68
2021/03/14 01:31:29;;;;;;;2.28;0.70;;;;;;;4.44;75.20;95141.59;5029341;28;20045;-67
2021/03/14 01:33:55;;;;;;;2.00;0.70;;;;;;;4.35;75.65;95156.13;5030720;28;20080;-67
2021/03/14 01:36:21;;;;;;;2.20;0.50;;;;;;;4.20;76.45;95146.50;5028781;28;22840;-68
2021/03/14 01:38:47;;;;;;;2.00;0.30;;;;;;;4.11;77.07;95149.13;5030284;28;20509;-68
2021/03/14 01:41:13;;;;;;;1.95;0.40;;;;;;;3.96;78.06;95146.00;5028761;28;20049;-70
2021/03/14 01:43:39;;;;;;;1.50;0.50;;;;;;;3.77;79.08;95157.75;5030194;28;20045;-67
2021/03/14 01:46:06;;;;;;;0.50;0.40;;;;;;;3.68;79.79;95154.16;5029105;28;20060;-68
2021/03/14 01:48:34;;;;;;;1.85;0.32;;;;;;;3.54;80.41;95154.19;5033178;28;20412;-68
2021/03/14 01:51:01;;;;;;;0.63;0.30;;;;;;;3.43;80.34;95141.25;5034001;28;20061;-68
2021/03/14 01:53:28;;;;;;;0.98;0.30;;;;;;;3.25;80.87;95130.34;5032789;28;20041;-69
2021/03/14 01:55:54;;;;;;;1.17;0.40;;;;;;;3.18;81.48;95132.63;5034136;28;20049;-70
2021/03/14 01:58:23;;;;;;;0.38;0.28;;;;;;;3.11;81.52;95130.34;5032438;28;20045;-67
2021/03/14 02:00:52;;;;;;;0.60;0.30;;;;;;;3.06;81.93;95116.19;5034341;28;20104;-68
2021/03/14 02:03:18;;;;;;;1.00;0.20;;;;;;;3.02;81.97;95115.19;5032510;28;20163;-68
2021/03/14 02:05:44;;;;;;;0.77;0.20;;;;;;;3.02;82.51;95120.56;5034099;28;20114;-68
2021/03/14 02:08:11;;;;;;;0.35;0.30;;;;;;;3.01;82.24;95103.66;5033359;28;20492;-68
2021/03/14 02:10:38;;;;;;;1.17;0.30;;;;;;;3.03;82.33;95114.91;5033369;28;20389;-68
2021/03/14 02:13:10;;;;;;;0.40;0.25;;;;;;;3.06;82.58;95116.19;5032942;28;20056;-68
2021/03/14 02:15:42;;;;;;;1.35;0.50;;;;;;;3.07;82.05;95113.19;5032972;28;20049;-68
2021/03/14 02:18:10;;;;;;;0.65;0.30;;;;;;;3.07;81.88;95123.97;5033396;28;20046;-68
2021/03/14 02:20:38;;;;;;;0.47;0.40;;;;;;;3.07;81.97;95125.84;5032546;28;20060;-69
2021/03/14 02:23:20;;;;;;;3.17;0.90;;;;;;;3.05;82.12;95133.44;5032897;28;20053;-69
2021/03/14 02:25:50;;;;;;;0.20;0.20;;;;;;;3.15;81.86;95135.91;5032716;28;20045;-69
2021/03/14 02:28:19;;;;;;;1.73;0.30;;;;;;;3.18;81.59;95135.31;5032675;28;20053;-70
2021/03/14 02:30:45;;;;;;;1.30;0.40;;;;;;;3.14;81.25;95137.81;5032984;28;20096;-69
2021/03/14 02:33:13;;;;;;;1.08;0.30;;;;;;;3.13;81.15;95144.31;5032760;28;20455;-68
2021/03/14 02:35:41;;;;;;;1.33;0.47;;;;;;;3.17;81.01;95147.16;5033515;28;20049;-68
2021/03/14 02:38:08;;;;;;;0.28;0.28;;;;;;;3.09;80.67;95153.25;5031810;28;20041;-69
2021/03/14 02:40:34;;;;;;;1.10;0.20;;;;;;;3.04;80.28;95151.47;5033477;28;20107;-68
2021/03/14 02:43:02;;;;;;;0.60;0.20;;;;;;;3.00;80.90;95152.38;5032140;28;20041;-68
2021/03/14 02:45:29;;;;;;;0.20;0.20;;;;;;;3.06;80.84;95148.47;5033127;28;20033;-68
2021/03/14 02:47:55;;;;;;;0.20;0.20;;;;;;;3.05;80.63;95146.88;5032208;28;20049;-68
2021/03/14 02:50:23;;;;;;;0.22;0.13;;;;;;;3.09;80.71;95142.50;5032500;28;20057;-68
2021/03/14 02:52:50;;;;;;;0.20;0.20;;;;;;;3.05;80.58;95157.66;5033299;28;20045;-68
2021/03/14 02:55:21;;;;;;;2.15;0.28;;;;;;;3.03;80.71;95149.09;5031920;28;20093;-68
2021/03/14 02:57:48;;;;;;;0.70;0.20;;;;;;;3.07;80.67;95150.84;5032629;28;20041;-69
2021/03/14 03:00:20;;;;;;;0.10;0.10;;;;;;;3.12;80.18;95152.66;5031518;28;20049;-68
2021/03/14 03:02:49;;;;;;;0.28;0.20;;;;;;;3.11;80.17;95151.06;5032922;28;20076;-68
2021/03/14 03:05:16;;;;;;;0.52;0.20;;;;;;;3.14;80.44;95156.66;5031383;28;20072;-69
2021/03/14 03:07:46;;;;;;;0.10;0.10;;;;;;;3.12;79.61;95158.03;5032997;28;20416;-68
2021/03/14 03:10:13;;;;;;;0.52;0.20;;;;;;;3.09;79.92;95164.03;5031379;28;20456;-68
2021/03/14 03:12:40;;;;;;;1.75;0.20;;;;;;;3.08;79.88;95168.59;5032518;28;20040;-68
2021/03/14 03:15:09;;;;;;;1.05;0.30;;;;;;;3.18;79.91;95169.47;5031554;28;20048;-69
2021/03/14 03:17:36;;;;;;;0.82;0.20;;;;;;;3.16;79.41;95169.78;5032133;28;20045;-68
2021/03/14 03:20:05;;;;;;;0.20;0.10;;;;;;;3.17;79.51;95170.59;5031900;28;20057;-69
2021/03/14 03:22:31;;;;;;;0.10;0.10;;;;;;;3.18;79.48;95177.56;5031280;28;20107;-68
2021/03/14 03:24:57;;;;;;;0.43;0.10;;;;;;;3.18;78.88;95161.41;5032514;28;20061;-68
2021/03/14 03:27:23;;;;;;;1.02;0.20;;;;;;;3.23;78.65;95153.25;5030674;28;20718;-68
2021/03/14 03:29:51;;;;;;;1.05;0.40;;;;;;;3.11;78.88;95162.63;5032556;28;20045;-69
2021/03/14 03:32:18;;;;;;;0.55;0.20;;;;;;;3.12;78.62;95174.16;5030857;28;20409;-68
2021/03/14 03:34:44;;;;;;;0.70;0.20;;;;;;;3.14;78.85;95180.06;5032233;28;20049;-68
2021/03/14 03:37:11;;;;;;;0.70;0.63;;;;;;;3.11;78.62;95176.06;5030992;28;20196;-69
2021/03/14 03:39:37;;;;;;;0.43;0.30;;;;;;;3.16;78.81;95180.53;5031716;28;20425;-68
2021/03/14 03:42:09;;;;;;;2.15;0.30;;;;;;;3.09;79.04;95172.09;5031295;28;20064;-68
2021/03/14 03:44:38;;;;;;;1.20;0.30;;;;;;;3.12;78.98;95174.16;5031388;28;20049;-69
2021/03/14 03:47:07;;;;;;;0.52;0.35;;;;;;;3.08;79.19;95179.38;5031614;28;20046;-68
2021/03/14 03:49:36;;;;;;;0.43;0.25;;;;;;;3.03;79.26;95186.75;5028147;28;20057;-68
2021/03/14 03:52:02;;;;;;;0.38;0.28;;;;;;;3.06;79.70;95195.00;5039753;28;20053;-69
2021/03/14 03:54:31;;;;;;;0.20;0.20;;;;;;;3.02;79.61;95185.13;5050800;28;20045;-69
2021/03/14 03:56:58;;;;;;;0.30;0.22;;;;;;;3.08;79.32;95205.44;5049579;28;20045;-68
2021/03/14 03:59:26;;;;;;;0.40;0.20;;;;;;;3.12;79.07;95206.44;5030652;28;20049;-68
2021/03/14 04:01:53;;;;;;;1.20;0.40;;;;;;;3.11;78.95;95207.53;5031435;28;20045;-68
2021/03/14 04:04:20;;;;;;;0.20;0.20;;;;;;;3.12;79.07;95225.28;5030904;28;20049;-68
2021/03/14 04:06:50;;;;;;;0.40;0.20;;;;;;;3.10;78.92;95224.78;5031077;28;20042;-68
2021/03/14 04:09:17;;;;;;;0.65;0.20;;;;;;;3.11;78.62;95231.75;5031026;28;20053;-69
2021/03/14 04:11:45;;;;;;;0.73;0.20;;;;;;;3.07;78.87;95220.78;5030245;28;20508;-69
2021/03/14 04:14:13;;;;;;;1.55;0.43;;;;;;;3.01;79.77;95221.97;5031199;28;20045;-68
2021/03/14 04:16:40;;;;;;;0.43;0.20;;;;;;;2.99;80.06;95228.75;5030501;28;20046;-68
2021/03/14 04:19:10;;;;;;;0.65;0.20;;;;;;;2.97;80.07;95231.72;5031096;28;20390;-68
2021/03/14 04:21:39;;;;;;;0.63;0.30;;;;;;;2.87;80.13;95224.66;5034745;28;20745;-68
2021/03/14 04:24:08;;;;;;;0.38;0.30;;;;;;;2.87;80.45;95230.03;5050401;28;20052;-68
2021/03/14 04:26:37;;;;;;;0.35;0.22;;;;;;;2.78;80.45;95234.50;5050949;28;20044;-68
2021/03/14 04:29:05;;;;;;;0.32;0.30;;;;;;;2.78;80.74;95247.16;5030103;28;20048;-67
2021/03/14 04:31:32;;;;;;;0.50;0.35;;;;;;;2.73;81.27;95244.53;5031348;28;20041;-68
2021/03/14 04:33:59;;;;;;;0.90;0.25;;;;;;;2.69;81.47;95256.97;5030003;28;20496;-68
2021/03/14 04:36:25;;;;;;;0.30;0.20;;;;;;;2.69;81.72;95247.00;5030710;28;20045;-68
2021/03/14 04:38:52;;;;;;;0.57;0.30;;;;;;;2.65;81.48;95267.50;5030240;28;20147;-68
2021/03/14 04:41:19;;;;;;;0.30;0.30;;;;;;;2.67;81.75;95278.78;5030656;28;20068;-68
2021/03/14 04:43:45;;;;;;;0.45;0.30;;;;;;;2.63;81.76;95285.81;5030126;28;20095;-68
2021/03/14 04:46:13;;;;;;;0.30;0.25;;;;;;;2.57;82.55;95284.31;5030103;28;20056;-69
2021/03/14 04:48:39;;;;;;;0.30;0.25;;;;;;;2.45;83.23;95294.69;5030692;28;20090;-71
2021/03/14 04:51:06;;;;;;;2.28;0.30;;;;;;;2.27;84.04;95321.28;5029667;28;20136;-73
2021/03/14 04:53:33;;;;;;;0.30;0.30;;;;;;;2.15;85.05;95318.25;5050804;28;20048;-73
2021/03/14 04:56:00;;;;;;;0.93;0.30;;;;;;;2.07;85.10;95326.94;5049596;28;20520;-71
2021/03/14 04:58:27;;;;;;;0.50;0.50;;;;;;;1.96;85.65;95330.84;5036039;28;20045;-71
2021/03/14 05:00:53;;;;;;;0.30;0.30;;;;;;;1.86;86.19;95331.78;5029785;28;20045;-71
2021/03/14 05:03:22;;;;;;;0.63;0.30;;;;;;;1.75;86.63;95341.84;5030312;28;20045;-71
2021/03/14 05:05:49;;;;;;;0.82;0.50;;;;;;;1.67;86.96;95329.06;5029827;28;20037;-71
2021/03/14 05:08:18;;;;;;;1.52;0.50;;;;;;;1.69;86.90;95334.13;5030020;28;20049;-71
2021/03/14 05:10:46;;;;;;;0.60;0.50;;;;;;;1.58;86.89;95338.81;5030240;28;20042;-71
2021/03/14 05:13:12;;;;;;;1.27;0.60;;;;;;;1.59;86.91;95340.41;5029581;28;20049;-72
2021/03/14 05:15:39;;;;;;;0.40;0.40;;;;;;;1.61;86.87;95345.47;5030520;28;20095;-71
2021/03/14 05:18:09;;;;;;;1.08;0.77;;;;;;;1.67;86.37;95352.38;5029446;28;20515;-71
2021/03/14 05:20:36;;;;;;;1.65;0.40;;;;;;;1.52;86.45;95364.13;5030640;28;20045;-71
2021/03/14 05:23:03;;;;;;;1.85;0.40;;;;;;;1.57;86.58;95361.38;5047853;28;20574;-71
2021/03/14 05:25:29;;;;;;;0.30;0.30;;;;;;;1.53;86.23;95360.34;5054909;28;20079;-71
2021/03/14 05:27:55;;;;;;;1.65;0.40;;;;;;;1.49;86.60;95364.66;5043175;28;20061;-71
2021/03/14 05:30:24;;;;;;;0.20;0.20;;;;;;;1.51;86.63;95383.94;5034253;28;20057;-70
2021/03/14 05:32:51;;;;;;;0.40;0.40;;;;;;;1.42;86.57;95381.09;5034683;28;20053;-73
2021/03/14 05:35:18;;;;;;;0.20;0.20;;;;;;;1.35;86.93;95379.81;5033587;28;20057;-73
2021/03/14 05:37:45;;;;;;;0.60;0.40;;;;;;;1.40;86.72;95387.81;5034086;28;20129;-73
2021/03/14 05:40:13;;;;;;;0.40;0.40;;;;;;;1.35;86.34;95395.91;5034085;28;20119;-73
2021/03/14 05:42:40;;;;;;;1.33;0.40;;;;;;;1.33;86.36;95392.72;5033248;28;20099;-73
2021/03/14 05:45:09;;;;;;;0.43;0.40;;;;;;;1.33;86.28;95411.50;5032887;28;20052;-73
2021/03/14 05:47:36;;;;;;;0.38;0.32;;;;;;;1.39;86.15;95407.69;5034533;28;20611;-73
2021/03/14 05:50:03;;;;;;;0.25;0.25;;;;;;;1.46;86.05;95408.16;5032663;28;20056;-74
2021/03/14 05:52:29;;;;;;;0.30;0.30;;;;;;;1.49;85.52;95426.38;5045625;28;20049;-73
2021/03/14 05:54:57;;;;;;;0.73;0.40;;;;;;;1.53;85.43;95427.41;5053508;28;20114;-73
2021/03/14 05:57:24;;;;;;;2.08;0.40;;;;;;;1.56;85.01;95419.56;5047174;28;20052;-74
2021/03/14 05:59:52;;;;;;;1.17;0.30;;;;;;;1.57;84.93;95433.81;5033791;28;20092;-73
2021/03/14 06:02:18;;;;;;;1.48;0.30;;;;;;;1.60;84.80;95441.28;5032612;28;20706;-73
2021/03/14 06:04:45;;;;;;;0.32;0.30;;;;;;;1.64;84.68;95439.66;5034029;28;20091;-73
2021/03/14 06:07:12;;;;;;;0.40;0.30;;;;;;;1.71;84.51;95440.09;5032314;28;20131;-73
2021/03/14 06:09:38;;;;;;;0.38;0.30;;;;;;;1.83;84.56;95435.16;5034169;28;20045;-74
2021/03/14 06:12:08;;;;;;;0.40;0.40;;;;;;;1.88;84.05;95436.16;5032286;28;20056;-74
2021/03/14 06:14:34;;;;;;;0.70;0.47;;;;;;;1.86;84.28;95420.34;5033864;28;20053;-73
2021/03/14 06:17:01;;;;;;;0.75;0.50;;;;;;;1.94;84.27;95422.44;5032367;28;20581;-73
2021/03/14 06:19:27;;;;;;;0.40;0.40;;;;;;;2.02;83.73;95413.72;5032927;28;20072;-73
2021/03/14 06:22:19;;;;;;;1.20;0.50;;;;;;;2.02;83.73;95402.97;5039819;28;20044;-70
2021/03/14 06:24:46;;;;;;;0.63;0.47;;;;;;;1.95;83.83;95409.81;5052582;28;20041;-71
2021/03/14 06:27:31;;;;;;;0.52;0.50;;;;;;;1.92;83.96;95407.69;5048635;28;20037;-73
2021/03/14 06:29:57;;;;;;;0.93;0.57;;;;;;;1.87;84.01;95423.84;5032580;28;20045;-71
2021/03/14 06:32:23;;;;;;;0.52;0.50;;;;;;;1.87;83.77;95423.84;5032752;28;20045;-71
2021/03/14 06:34:49;;;;;;;1.08;0.57;;;;;;;1.81;83.99;95442.69;5032429;28;20053;-71
2021/03/14 06:37:17;;;;;;;0.63;0.60;;;;;;;1.75;84.36;95441.13;5032652;28;20133;-71
2021/03/14 06:39:44;;;;;;;0.68;0.50;;;;;;;1.88;84.25;95446.91;5033024;28;20053;-71
2021/03/14 06:42:11;;;;;;;1.30;0.80;;;;;;;1.88;84.16;95453.09;5032143;28;20046;-73
2021/03/14 06:44:39;;;;;;;1.50;0.70;;;;;;;1.93;84.05;95449.53;5033203;28;20049;-71
2021/03/14 06:47:05;;;;;;;1.30;0.63;;;;;;;1.98;83.59;95457.53;5031726;28;20049;-70
2021/03/14 06:49:36;;;;;;;1.70;0.73;;;;;;;1.93;83.16;95460.28;5033103;28;20046;-72
2021/03/14 06:52:03;;;;;;;0.90;0.77;;;;;;;1.93;83.36;95473.69;5039578;28;20049;-71
2021/03/14 06:54:30;;;;;;;0.60;0.50;;;;;;;1.93;83.17;95481.75;5053119;28;20060;-71
2021/03/14 06:56:58;;;;;;;0.70;0.68;;;;;;;1.88;82.97;95490.69;5051072;28;20045;-72
2021/03/14 06:59:24;;;;;;;1.67;0.70;;;;;;;1.89;82.31;95497.66;5032202;28;20088;-71
2021/03/14 07:01:58;;;;;;;1.30;0.70;;;;;;;1.95;82.75;95514.50;5032265;28;20045;-72
2021/03/14 07:04:32;;;;;;;0.77;0.60;;;;;;;1.96;82.25;95518.78;5030443;28;20426;-70
2021/03/14 07:06:58;;;;;;;0.70;0.60;;;;;;;2.07;82.10;95515.72;5032849;28;20045;-71
2021/03/14 07:09:24;;;;;;;0.75;0.60;;;;;;;2.17;82.02;95520.19;5029882;28;20041;-70
2021/03/14 07:11:50;;;;;;;1.05;0.55;;;;;;;2.31;81.41;95526.47;5032752;28;20124;-70
2021/03/14 07:14:18;;;;;;;1.52;0.40;;;;;;;2.38;80.73;95519.97;5031259;28;20451;-70
2021/03/14 07:16:46;;;;;;;1.33;0.50;;;;;;;2.41;80.00;95533.63;5032721;28;20584;-72
2021/03/14 07:19:20;;;;;;;0.90;0.68;;;;;;;2.47;80.22;95537.84;5031224;28;20038;-70
2021/03/14 07:21:56;;;;;;;1.05;0.60;;;;;;;2.42;79.77;95542.50;5032127;28;20038;-72
2021/03/14 07:24:29;;;;;;;0.70;0.50;;;;;;;2.47;79.93;95539.75;5031705;28;20045;-73
2021/03/14 07:26:55;;;;;;;1.33;0.60;;;;;;;2.34;79.75;95547.38;5030927;28;20459;-71
2021/03/14 07:29:21;;;;;;;0.45;0.35;;;;;;;2.42;80.38;95553.25;5031427;28;20057;-72
2021/03/14 07:31:49;;;;;;;0.40;0.40;;;;;;;2.44;80.58;95548.38;5030791;28;20041;-72
2021/03/14 07:34:16;;;;;;;1.38;0.50;;;;;;;2.51;80.30;95562.28;5030798;28;20045;-72
2021/03/14 07:36:44;;;;;;;0.85;0.47;;;;;;;2.53;80.17;95576.22;5030900;28;20048;-71
2021/03/14 07:39:10;;;;;;;0.82;0.47;;;;;;;2.50;79.79;95582.16;5031710;28;20111;-72
2021/03/14 07:41:36;;;;;;;1.67;0.50;;;;;;;2.52;80.40;95575.44;5031713;28;20053;-74
2021/03/14 07:44:04;;;;;;;3.72;0.60;;;;;;;2.54;80.63;95588.56;5031001;28;20562;-73
2021/03/14 07:46:32;;;;;;;0.63;0.50;;;;;;;2.54;80.71;95599.31;5031348;28;20049;-74
2021/03/14 07:49:00;;;;;;;0.70;0.63;;;;;;;2.58;80.06;95603.03;5031295;28;20050;-74
2021/03/14 07:51:28;;;;;;;1.77;0.70;;;;;;;2.53;80.25;95606.59;5051953;28;20612;-74
2021/03/14 07:54:01;;;;;;;0.47;0.47;;;;;;;2.55;80.55;95617.03;5050007;28;20041;-76
2021/03/14 07:56:32;;;;;;;1.40;0.47;;;;;;;2.60;80.20;95615.09;5050879;28;20400;-76
2021/03/14 07:58:58;;;;;;;1.75;0.70;;;;;;;2.60;80.50;95625.06;5050544;28;20068;-76
2021/03/14 08:01:26;;;;;;;0.70;0.40;;;;;;;2.50;80.42;95642.06;5050676;28;20064;-76
2021/03/14 08:03:52;;;;;;;0.85;0.60;;;;;;;2.50;80.79;95647.44;5050398;28;20057;-77
2021/03/14 08:06:51;;;;;;;0.52;0.43;;;;;;;2.59;80.67;95655.72;5050206;28;20044;-76
2021/03/14 08:09:39;;;;;;;0.77;0.50;;;;;;;2.61;80.75;95669.69;5050670;28;20041;-76
2021/03/14 08:12:25;;;;;;;0.50;0.45;;;;;;;2.72;80.48;95671.19;5051113;28;20037;-76
2021/03/14 08:14:53;;;;;;;1.63;0.63;;;;;;;2.72;80.47;95675.75;5050904;28;20048;-76
2021/03/14 08:17:22;;;;;;;0.40;0.40;;;;;;;2.58;80.11;95681.00;5049689;28;20485;-76
2021/03/14 08:19:50;;;;;;;1.30;0.40;;;;;;;2.58;80.34;95672.94;5051250;28;20040;-76
2021/03/14 08:22:46;;;;;;;0.98;0.60;;;;;;;2.60;80.35;95676.13;5049766;28;20086;-76
2021/03/14 08:25:25;;;;;;;2.65;0.70;;;;;;;2.62;79.49;95665.91;5049544;28;20179;-76
2021/03/14 08:27:54;;;;;;;2.20;0.60;;;;;;;2.71;79.47;95671.44;5050796;28;20061;-76
2021/03/14 08:30:47;;;;;;;1.15;0.73;;;;;;;2.85;78.93;95672.38;5049637;28;20041;-74
2021/03/14 08:33:26;;;;;;;0.68;0.40;;;;;;;3.01;78.25;95673.00;5049543;28;20110;-74
2021/03/14 08:35:53;;;;;;;1.23;0.50;;;;;;;2.96;78.26;95675.75;5049972;28;20049;-73
2021/03/14 08:38:32;;;;;;;0.38;0.30;;;;;;;2.87;77.88;95668.34;5048982;28;20048;-75
2021/03/14 08:41:17;;;;;;;0.60;0.40;;;;;;;3.01;77.99;95670.31;5051314;28;20044;-74
2021/03/14 08:43:45;;;;;;;1.25;0.43;;;;;;;3.25;77.61;95673.81;5049710;28;20052;-75
2021/03/14 08:46:12;;;;;;;1.17;0.43;;;;;;;3.52;75.94;95672.41;5049767;28;20141;-74
2021/03/14 08:48:38;;;;;;;2.72;0.90;;;;;;;3.65;74.55;95660.91;5050212;28;20064;-74
2021/03/14 08:51:06;;;;;;;1.50;0.60;;;;;;;4.12;74.60;95659.13;5045469;28;20045;-74
2021/03/14 08:53:34;;;;;;;2.13;0.80;;;;;;;4.08;72.23;95666.22;5045825;28;20086;-74
2021/03/14 08:56:00;;;;;;;0.63;0.50;;;;;;;3.92;73.35;95666.44;5046162;28;20665;-74
2021/03/14 08:58:26;;;;;;;1.60;0.50;;;;;;;3.99;73.65;95667.97;5046893;28;20045;-73
2021/03/14 09:01:07;;;;;;;0.70;0.60;;;;;;;3.91;73.63;95675.63;5044862;28;20044;-74
2021/03/14 09:03:40;;;;;;;0.82;0.50;;;;;;;3.90;74.49;95678.59;5047194;28;20554;-73
2021/03/14 09:06:26;;;;;;;1.30;0.50;;;;;;;3.73;73.89;95678.31;5045671;28;20045;-74
2021/03/14 09:08:58;;;;;;;1.52;0.70;;;;;;;3.62;74.60;95677.66;5027698;28;20049;-73
2021/03/14 09:11:41;;;;;;;0.68;0.60;;;;;;;3.62;74.13;95678.44;5025186;28;20052;-73
2021/03/14 09:14:25;;;;;;;1.23;0.80;;;;;;;3.46;74.31;95679.75;5025270;28;20062;-74
2021/03/14 09:16:52;;;;;;;1.38;0.73;;;;;;;3.35;75.03;95684.44;5026752;28;20076;-73
2021/03/14 09:19:26;;;;;;;1.08;0.75;;;;;;;3.36;75.60;95691.44;5023988;28;20072;-73
2021/03/14 09:21:54;;;;;;;1.42;0.60;;;;;;;3.34;76.22;95688.25;5039646;28;20503;-73
2021/03/14 09:24:30;;;;;;;0.82;0.60;;;;;;;3.30;76.91;95687.19;5045944;28;20063;-74
2021/03/14 09:26:58;;;;;;;0.45;0.40;;;;;;;3.36;77.17;95696.81;5046059;28;20107;-73
2021/03/14 09:29:50;;;;;;;1.15;0.40;;;;;;;3.12;77.54;95701.41;5045441;28;20045;-75
2021/03/14 09:32:35;;;;;;;0.95;0.50;;;;;;;2.87;78.76;95699.78;5045551;28;20049;-75
2021/03/14 09:35:20;;;;;;;0.98;0.57;;;;;;;2.82;80.30;95702.53;5045852;28;20049;-75
2021/03/14 09:37:48;;;;;;;1.02;0.68;;;;;;;2.76;80.11;95704.44;5046909;28;20128;-76
2021/03/14 09:40:19;;;;;;;1.77;0.90;;;;;;;2.88;80.86;95710.25;5045834;28;20059;-75
2021/03/14 09:42:46;;;;;;;0.98;0.82;;;;;;;2.88;79.86;95718.34;5046379;28;20099;-75
2021/03/14 09:45:14;;;;;;;1.75;1.15;;;;;;;2.77;79.20;95716.84;5045081;28;20646;-73
2021/03/14 09:48:01;;;;;;;1.70;0.80;;;;;;;2.85;79.75;95720.78;5046617;28;20037;-73
2021/03/14 09:50:29;;;;;;;1.88;0.88;;;;;;;2.91;79.31;95732.28;5046731;28;20044;-73
2021/03/14 09:52:59;;;;;;;2.85;0.85;;;;;;;2.95;78.87;95718.00;5046898;28;20045;-73
2021/03/14 09:55:27;;;;;;;2.42;0.90;;;;;;;2.91;79.17;95721.53;5046509;28;20496;-75
2021/03/14 09:57:53;;;;;;;4.22;1.08;;;;;;;2.97;78.59;95715.00;5046220;28;20049;-75
2021/03/14 10:00:28;;;;;;;1.65;1.00;;;;;;;3.06;78.68;95718.69;5046417;28;20049;-73
2021/03/14 10:02:54;;;;;;;2.58;1.00;;;;;;;3.16;77.70;95707.81;5045552;28;20052;-75
2021/03/14 10:05:20;;;;;;;1.92;1.00;;;;;;;3.26;76.83;95713.06;5046611;28;20226;-74
2021/03/14 10:07:53;;;;;;;5.03;1.13;;;;;;;3.22;75.87;95698.59;5046346;28;20840;-73
2021/03/14 10:10:20;;;;;;;2.55;1.00;;;;;;;3.48;76.05;95709.06;5050134;28;20064;-73
2021/03/14 10:12:47;;;;;;;1.77;0.80;;;;;;;3.90;76.16;95698.25;5049786;28;20056;-73
2021/03/14 10:15:17;;;;;;;3.45;1.00;;;;;;;4.31;75.36;95696.84;5049247;28;20045;-73
2021/03/14 10:17:45;;;;;;;2.70;0.88;;;;;;;4.70;73.49;95697.28;5050251;28;20044;-73
2021/03/14 10:20:12;;;;;;;1.23;1.05;;;;;;;4.90;69.17;95695.28;5055382;28;20060;-73
2021/03/14 10:22:38;;;;;;;1.65;0.85;;;;;;;4.91;68.68;95696.91;5068330;28;20052;-73
2021/03/14 10:25:06;;;;;;;1.30;0.70;;;;;;;4.89;69.67;95713.38;5068786;28;20052;-73
2021/03/14 10:27:32;;;;;;;1.55;0.70;;;;;;;4.94;68.13;95715.97;5063256;28;20067;-73
2021/03/14 10:30:01;;;;;;;3.15;1.02;;;;;;;4.84;66.58;95718.84;5049293;28;20216;-73
2021/03/14 10:32:31;;;;;;;1.88;0.95;;;;;;;4.76;64.92;95726.84;5049554;28;20136;-75
2021/03/14 10:34:59;;;;;;;2.38;1.00;;;;;;;4.55;65.46;95726.38;5049085;28;20052;-73
2021/03/14 10:37:27;;;;;;;3.50;0.98;;;;;;;4.57;68.00;95729.59;5048952;28;20053;-73
2021/03/14 10:40:01;;;;;;;1.50;0.80;;;;;;;4.57;66.21;95729.59;5049236;28;20049;-73
2021/03/14 10:42:29;;;;;;;1.67;0.80;;;;;;;4.50;66.29;95735.34;5028758;28;20045;-73
2021/03/14 10:45:01;;;;;;;2.05;1.00;;;;;;;4.50;66.23;95745.34;5030329;28;20053;-73
2021/03/14 10:47:28;;;;;;;3.00;1.00;;;;;;;4.45;63.09;95755.09;5028891;28;20052;-73
2021/03/14 10:50:13;;;;;;;2.13;0.80;;;;;;;4.43;65.13;95751.88;5029825;28;20439;-73
2021/03/14 10:52:39;;;;;;;1.17;0.70;;;;;;;4.52;66.20;95753.94;5047043;28;20135;-73
2021/03/14 10:55:26;;;;;;;2.58;0.82;;;;;;;4.79;65.26;95745.91;5068831;28;20404;-72
2021/03/14 10:58:07;;;;;;;4.50;0.90;;;;;;;4.94;63.36;95745.66;5059769;28;20068;-73
2021/03/14 11:00:36;;;;;;;5.65;1.20;;;;;;;5.02;63.04;95746.09;5048597;28;20045;-72
2021/03/14 11:03:10;;;;;;;1.98;1.08;;;;;;;5.00;61.76;95750.97;5049262;28;20044;-72
2021/03/14 11:05:37;;;;;;;2.67;0.95;;;;;;;4.89;62.41;95745.75;5047509;28;20052;-72
2021/03/14 11:08:04;;;;;;;2.78;0.80;;;;;;;4.95;61.77;95751.84;5049056;28;20053;-72
2021/03/14 11:10:30;;;;;;;5.35;0.90;;;;;;;5.06;62.74;95753.28;5049082;28;20053;-72
2021/03/14 11:12:56;;;;;;;2.78;1.08;;;;;;;5.13;61.43;95758.31;5049075;28;20127;-72
2021/03/14 11:15:26;;;;;;;4.25;1.20;;;;;;;5.02;61.56;95752.28;5048832;28;20057;-72
2021/03/14 11:17:53;;;;;;;4.18;1.05;;;;;;;5.12;59.77;95756.72;5048623;28;20536;-72
2021/03/14 11:20:21;;;;;;;1.65;0.82;;;;;;;4.93;58.76;95746.75;5048772;28;20523;-73
2021/03/14 11:22:51;;;;;;;2.67;0.80;;;;;;;5.16;58.78;95746.91;5062226;28;20045;-72
2021/03/14 11:25:18;;;;;;;3.83;0.85;;;;;;;5.41;60.03;95732.91;5069001;28;20044;-72
2021/03/14 11:27:44;;;;;;;2.17;0.73;;;;;;;5.46;59.88;95729.31;5058039;28;20057;-72
2021/03/14 11:30:11;;;;;;;5.05;0.90;;;;;;;5.49;59.53;95740.34;5048821;28;20045;-72
2021/03/14 11:32:37;;;;;;;2.05;0.70;;;;;;;5.33;59.02;95735.53;5048041;28;20080;-72
2021/03/14 11:35:05;;;;;;;3.60;1.15;;;;;;;5.29;60.26;95735.31;5048544;28;20073;-71
2021/03/14 11:37:31;;;;;;;3.45;1.00;;;;;;;5.30;58.27;95733.41;5049074;28;20451;-72
2021/03/14 11:39:57;;;;;;;2.75;1.00;;;;;;;5.49;58.78;95734.94;5048476;28;20051;-72
2021/03/14 11:42:23;;;;;;;3.15;0.85;;;;;;;5.52;57.80;95735.41;5048107;28;20048;-72
2021/03/14 11:44:49;;;;;;;2.47;1.00;;;;;;;5.34;57.80;95740.63;5047790;28;20052;-72
2021/03/14 11:47:15;;;;;;;7.25;1.27;;;;;;;5.38;58.58;95733.53;5048360;28;20045;-72
2021/03/14 11:49:41;;;;;;;6.22;1.10;;;;;;;5.33;59.25;95736.34;5047769;28;20048;-72